Time;durP1;ratioP1;P1;durP2;ratioP2;P2;SDS_P1;SDS_P2;PMS_P1;PMS_P2;Temp;Humidity;BMP_temperature;BMP_pressure;BME280_temperature;BME280_humidity;BME280_pressure;Samples;Min_cycle;Max_cycle;Signal;HPM_P1;HPM_P2
2023/01/04 00:02:05;;;;;;;;;;;4.70;99.90;;;;;;5098193;27;19923;-71
2023/01/04 00:04:30;;;;;;;;;;;4.70;99.90;;;;;;5096343;27;19919;-71
2023/01/04 00:06:56;;;;;;;;;;;4.70;99.90;;;;;;5097981;28;19951;-75
2023/01/04 00:09:21;;;;;;;;;;;4.60;99.90;;;;;;5097636;28;19911;-74
2023/01/04 00:11:47;;;;;;;;;;;4.70;99.90;;;;;;5089010;28;19912;-74
2023/01/04 00:14:13;;;;;;;;;;;4.60;99.90;;;;;;5088798;27;19923;-74
2023/01/04 00:16:38;;;;;;;;;;;4.60;99.90;;;;;;5097524;27;20011;-74
2023/01/04 00:19:03;;;;;;;;;;;4.60;99.90;;;;;;5094825;28;20033;-74
2023/01/04 00:21:29;;;;;;;;;;;4.60;99.90;;;;;;5096786;28;20334;-73
2023/01/04 00:23:56;;;;;;;;;;;4.60;99.90;;;;;;5096860;28;19924;-72
2023/01/04 00:26:23;;;;;;;;;;;4.60;99.90;;;;;;5096499;27;19912;-71
2023/01/04 00:28:53;;;;;;;;;;;4.60;99.90;;;;;;5095953;27;20336;-71
2023/01/04 00:31:19;;;;;;;;;;;4.60;99.90;;;;;;5096526;28;20697;-73
2023/01/04 00:33:44;;;;;;;;;;;4.60;99.90;;;;;;5096007;28;19915;-73
2023/01/04 00:36:11;;;;;;;;;;;4.60;99.90;;;;;;5095959;28;19920;-73
2023/01/04 00:38:37;;;;;;;;;;;4.60;99.90;;;;;;5096868;27;19959;-73
2023/01/04 00:41:03;;;;;;;;;;;4.60;99.90;;;;;;5097518;27;19959;-73
2023/01/04 00:43:28;;;;;;;;;;;4.50;99.90;;;;;;5094136;27;19927;-73
2023/01/04 00:45:56;;;;;;;;;;;4.60;99.90;;;;;;5095977;28;21283;-72
2023/01/04 00:48:22;;;;;;;;;;;4.60;99.90;;;;;;5098643;27;19926;-75
2023/01/04 00:50:48;;;;;;;;;;;4.60;99.90;;;;;;5093897;27;20370;-73
2023/01/04 00:53:14;;;;;;;;;;;4.60;99.90;;;;;;5083641;28;20008;-74
2023/01/04 00:55:40;;;;;;;;;;;4.60;99.90;;;;;;5084362;27;20050;-73
2023/01/04 00:58:05;;;;;;;;;;;4.70;99.90;;;;;;5093056;28;20616;-73
2023/01/04 01:00:31;;;;;;;;;;;4.70;99.90;;;;;;5092939;28;20106;-73
2023/01/04 01:02:56;;;;;;;;;;;4.70;99.90;;;;;;5095976;28;19926;-71
2023/01/04 01:05:21;;;;;;;;;;;4.70;99.90;;;;;;5096333;28;19916;-72
2023/01/04 01:07:47;;;;;;;;;;;4.80;99.90;;;;;;5096145;28;19916;-73
2023/01/04 01:10:12;;;;;;;;;;;4.80;99.90;;;;;;5093436;28;19938;-74
2023/01/04 01:12:38;;;;;;;;;;;4.80;99.90;;;;;;5095206;28;19948;-75
2023/01/04 01:15:03;;;;;;;;;;;4.80;99.90;;;;;;5095141;28;20292;-72
2023/01/04 01:17:29;;;;;;;;;;;4.80;99.90;;;;;;5096559;28;19922;-72
2023/01/04 01:19:54;;;;;;;;;;;4.90;99.90;;;;;;5094482;28;19915;-71
2023/01/04 01:22:20;;;;;;;;;;;4.90;99.90;;;;;;5094418;28;19998;-73
2023/01/04 01:24:45;;;;;;;;;;;4.90;99.90;;;;;;5095834;28;19923;-72
2023/01/04 01:27:11;;;;;;;;;;;4.90;99.90;;;;;;5096504;28;20034;-73
2023/01/04 01:29:36;;;;;;;;;;;4.90;99.90;;;;;;5099243;27;19976;-73
2023/01/04 01:32:01;;;;;;;;;;;4.90;99.90;;;;;;5100115;28;20351;-72
2023/01/04 01:34:27;;;;;;;;;;;4.90;99.90;;;;;;5101155;27;19916;-70
2023/01/04 01:36:52;;;;;;;;;;;4.90;99.90;;;;;;5098415;27;20115;-71
2023/01/04 01:39:18;;;;;;;;;;;4.90;99.90;;;;;;5100579;27;19926;-72
2023/01/04 01:41:43;;;;;;;;;;;4.90;99.90;;;;;;5099261;27;19936;-72
2023/01/04 01:44:11;;;;;;;;;;;4.90;99.90;;;;;;5099907;28;20425;-78
2023/01/04 01:46:45;;;;;;;;;;;4.90;99.90;;;;;;5101010;28;19962;-78
2023/01/04 01:49:17;;;;;;;;;;;4.90;99.90;;;;;;5100603;27;19922;-78
2023/01/04 01:51:42;;;;;;;;;;;4.80;99.90;;;;;;5099627;28;20130;-79
2023/01/04 01:54:31;;;;;;;;;;;4.80;99.90;;;;;;5105237;27;19919;-78
2023/01/04 01:56:58;;;;;;;;;;;4.80;99.90;;;;;;5088216;27;19915;-78
2023/01/04 01:59:25;;;;;;;;;;;4.70;99.90;;;;;;5099785;27;19912;-78
2023/01/04 02:01:50;;;;;;;;;;;4.70;99.90;;;;;;5099297;27;20316;-76
2023/01/04 02:04:15;;;;;;;;;;;4.70;99.90;;;;;;5103064;27;20285;-78
2023/01/04 02:06:44;;;;;;;;;;;4.70;99.90;;;;;;5096835;27;19954;-75
2023/01/04 02:09:10;;;;;;;;;;;4.70;99.90;;;;;;5099222;27;19916;-76
2023/01/04 02:11:36;;;;;;;;;;;4.70;99.90;;;;;;5100397;27;19946;-74
2023/01/04 02:17:08;;;;;;;;;;;4.70;99.90;;;;;;5099973;28;19922;-71
2023/01/04 02:19:34;;;;;;;;;;;4.70;99.90;;;;;;5096384;28;20377;-71
2023/01/04 02:22:18;;;;;;;;;;;4.60;99.90;;;;;;5088341;27;19923;-70
2023/01/04 02:25:03;;;;;;;;;;;4.60;99.90;;;;;;5089104;28;19969;-70
2023/01/04 02:27:38;;;;;;;;;;;4.60;99.90;;;;;;5085371;27;19920;-70
2023/01/04 02:30:07;;;;;;;;;;;4.60;99.90;;;;;;5091371;27;20431;-71
2023/01/04 02:32:39;;;;;;;;;;;4.60;99.90;;;;;;5089979;28;19920;-71
2023/01/04 02:35:18;;;;;;;;;;;4.60;99.90;;;;;;5088928;27;19925;-71
2023/01/04 02:37:49;;;;;;;;;;;4.60;99.90;;;;;;5088514;28;20086;-71
2023/01/04 02:40:19;;;;;;;;;;;4.60;99.90;;;;;;5086546;28;20418;-71
2023/01/04 02:46:01;;;;;;;;;;;4.50;99.90;;;;;;5081718;28;20323;-73
2023/01/04 02:51:26;;;;;;;;;;;4.50;99.90;;;;;;5087032;28;19922;-69
2023/01/04 02:53:51;;;;;;;;;;;4.50;99.90;;;;;;5088305;27;19924;-71
2023/01/04 02:56:17;;;;;;;;;;;4.50;99.90;;;;;;5088561;27;19997;-72
2023/01/04 02:58:45;;;;;;;;;;;4.50;99.90;;;;;;5088865;27;19983;-71
2023/01/04 03:07:04;;;;;;;;;;;4.50;99.90;;;;;;5086049;27;19974;-78
2023/01/04 03:09:32;;;;;;;;;;;4.40;99.90;;;;;;5088232;28;19916;-72
2023/01/04 03:14:50;;;;;;;;;;;4.40;99.90;;;;;;5087559;28;19994;-72
2023/01/04 03:17:16;;;;;;;;;;;4.40;99.90;;;;;;5088100;27;19920;-72
2023/01/04 03:19:50;;;;;;;;;;;4.50;99.90;;;;;;5087984;28;20127;-71
2023/01/04 03:36:11;;;;;;;;;;;4.50;99.90;;;;;;5085291;27;20007;-71
2023/01/04 03:50:37;;;;;;;;;;;4.40;99.90;;;;;;5086823;28;19957;-70
2023/01/04 03:53:04;;;;;;;;;;;4.40;99.90;;;;;;5087451;28;20339;-71
2023/01/04 03:55:30;;;;;;;;;;;4.40;99.90;;;;;;5087718;28;19916;-71
2023/01/04 03:57:56;;;;;;;;;;;4.40;99.90;;;;;;5086182;28;19916;-71
2023/01/04 04:00:22;;;;;;;;;;;4.40;99.90;;;;;;5088503;28;19969;-72
2023/01/04 04:02:47;;;;;;;;;;;4.40;99.90;;;;;;5088349;28;19919;-73
2023/01/04 04:10:44;;;;;;;;;;;4.30;99.90;;;;;;5086693;27;19925;-72
2023/01/04 04:13:09;;;;;;;;;;;4.30;99.90;;;;;;5087580;28;19916;-72
2023/01/04 04:15:35;;;;;;;;;;;4.30;99.90;;;;;;5089843;27;19920;-72
2023/01/04 04:18:01;;;;;;;;;;;4.30;99.90;;;;;;5088093;27;19912;-72
2023/01/04 04:20:26;;;;;;;;;;;4.30;99.90;;;;;;5087593;28;20483;-72
2023/01/04 04:22:52;;;;;;;;;;;4.30;99.90;;;;;;5084915;27;19919;-74
2023/01/04 04:25:17;;;;;;;;;;;4.30;99.90;;;;;;5086031;28;19917;-72
2023/01/04 04:27:43;;;;;;;;;;;4.30;99.90;;;;;;5088479;27;19918;-71
2023/01/04 04:30:08;;;;;;;;;;;4.30;99.90;;;;;;5084519;28;19919;-72
2023/01/04 04:32:34;;;;;;;;;;;4.40;99.90;;;;;;5086378;27;19919;-72
2023/01/04 04:35:00;;;;;;;;;;;4.40;99.90;;;;;;5085790;28;20505;-72
2023/01/04 04:37:27;;;;;;;;;;;4.40;99.90;;;;;;5090662;28;19923;-71
2023/01/04 04:39:52;;;;;;;;;;;4.50;99.90;;;;;;5097056;28;19949;-71
2023/01/04 04:42:18;;;;;;;;;;;4.50;99.90;;;;;;5095954;28;20727;-71
2023/01/04 04:44:43;;;;;;;;;;;4.50;99.90;;;;;;5098550;27;20016;-73
2023/01/04 04:47:09;;;;;;;;;;;4.60;99.90;;;;;;5096842;27;19922;-72
2023/01/04 04:49:34;;;;;;;;;;;4.60;99.90;;;;;;5093612;28;20337;-71
2023/01/04 04:51:59;;;;;;;;;;;4.60;99.90;;;;;;5095816;28;19938;-71
2023/01/04 04:54:25;;;;;;;;;;;4.60;99.90;;;;;;5097039;28;20608;-74
2023/01/04 04:56:50;;;;;;;;;;;4.60;99.90;;;;;;5096741;28;19954;-75
2023/01/04 04:59:16;;;;;;;;;;;4.60;99.90;;;;;;5096960;28;20388;-73
2023/01/04 05:01:42;;;;;;;;;;;4.60;99.90;;;;;;5095607;27;20324;-72
2023/01/04 05:04:07;;;;;;;;;;;4.70;99.90;;;;;;5094360;28;19920;-74
2023/01/04 05:06:33;;;;;;;;;;;4.70;99.90;;;;;;5098394;28;19916;-73
2023/01/04 05:08:59;;;;;;;;;;;4.80;99.90;;;;;;5096348;28;19919;-69
2023/01/04 05:14:08;;;;;;;;;;;4.80;99.90;;;;;;5084420;28;19944;-80
2023/01/04 05:16:34;;;;;;;;;;;4.90;99.90;;;;;;5097088;28;21175;-72
2023/01/04 05:19:00;;;;;;;;;;;4.90;99.90;;;;;;5096405;28;20277;-72
2023/01/04 05:21:25;;;;;;;;;;;4.90;99.90;;;;;;5092234;27;19916;-74
2023/01/04 05:23:50;;;;;;;;;;;4.90;99.90;;;;;;5084177;28;19920;-71
2023/01/04 05:26:16;;;;;;;;;;;4.90;99.90;;;;;;5086193;28;19916;-70
2023/01/04 05:28:41;;;;;;;;;;;5.00;99.90;;;;;;5084973;28;19923;-70
2023/01/04 05:31:07;;;;;;;;;;;5.00;99.90;;;;;;5080661;28;19916;-66
2023/01/04 05:33:33;;;;;;;;;;;5.00;99.90;;;;;;5085391;28;20283;-67
2023/01/04 05:36:00;;;;;;;;;;;5.20;99.90;;;;;;5085521;28;19920;-63
2023/01/04 05:38:26;;;;;;;;;;;5.20;99.90;;;;;;5085619;28;19923;-67
2023/01/04 05:40:51;;;;;;;;;;;5.30;99.90;;;;;;5087371;28;19924;-65
2023/01/04 05:43:17;;;;;;;;;;;5.30;99.90;;;;;;5086292;28;20365;-64
2023/01/04 05:45:45;;;;;;;;;;;5.30;99.90;;;;;;5083566;28;19949;-67
2023/01/04 05:48:11;;;;;;;;;;;5.30;99.90;;;;;;5077668;28;19927;-70
2023/01/04 05:50:36;;;;;;;;;;;5.30;99.90;;;;;;5079592;28;20232;-71
2023/01/04 05:53:02;;;;;;;;;;;5.30;99.90;;;;;;5080102;28;19916;-71
2023/01/04 05:55:27;;;;;;;;;;;5.40;99.90;;;;;;5079344;28;20384;-72
2023/01/04 05:57:53;;;;;;;;;;;5.40;99.90;;;;;;5079638;28;20284;-69
2023/01/04 06:00:19;;;;;;;;;;;5.40;99.90;;;;;;5079623;28;19916;-69
2023/01/04 06:02:44;;;;;;;;;;;5.50;99.90;;;;;;5080505;28;20012;-68
2023/01/04 06:05:10;;;;;;;;;;;5.50;99.90;;;;;;5078942;28;19927;-68
2023/01/04 06:07:36;;;;;;;;;;;5.60;99.90;;;;;;5083060;28;20339;-65
2023/01/04 06:10:02;;;;;;;;;;;5.50;99.90;;;;;;5082761;28;20572;-64
2023/01/04 06:12:27;;;;;;;;;;;5.50;99.90;;;;;;5078600;28;19916;-64
2023/01/04 06:14:53;;;;;;;;;;;5.50;99.90;;;;;;5085951;28;20017;-67
2023/01/04 06:17:18;;;;;;;;;;;5.60;99.90;;;;;;5082640;28;20561;-68
2023/01/04 06:19:44;;;;;;;;;;;5.60;99.90;;;;;;5090497;27;19941;-67
2023/01/04 06:22:10;;;;;;;;;;;5.60;99.90;;;;;;5080473;27;22959;-66
2023/01/04 06:24:35;;;;;;;;;;;5.60;99.90;;;;;;5082189;28;19920;-67
2023/01/04 06:27:01;;;;;;;;;;;5.60;99.90;;;;;;5082685;27;19912;-72
2023/01/04 06:29:27;;;;;;;;;;;5.60;99.90;;;;;;5080570;27;20233;-67
2023/01/04 06:31:52;;;;;;;;;;;5.60;99.90;;;;;;5082097;28;20429;-73
2023/01/04 06:34:18;;;;;;;;;;;5.60;99.90;;;;;;5082095;27;19924;-71
2023/01/04 06:36:43;;;;;;;;;;;5.70;99.90;;;;;;5083165;28;19914;-68
2023/01/04 06:39:09;;;;;;;;;;;5.70;99.90;;;;;;5083375;27;19955;-67
2023/01/04 06:41:34;;;;;;;;;;;5.80;99.90;;;;;;5092076;27;19931;-67
2023/01/04 06:44:00;;;;;;;;;;;5.80;99.90;;;;;;5087774;27;20585;-66
2023/01/04 06:46:25;;;;;;;;;;;5.80;99.90;;;;;;5088842;27;19915;-72
2023/01/04 06:48:52;;;;;;;;;;;5.80;99.90;;;;;;5085523;27;19915;-69
2023/01/04 06:51:18;;;;;;;;;;;5.80;99.90;;;;;;5085826;27;20027;-70
2023/01/04 06:53:44;;;;;;;;;;;5.80;99.90;;;;;;5085584;27;19916;-64
2023/01/04 06:56:09;;;;;;;;;;;5.90;99.90;;;;;;5084712;28;20007;-66
2023/01/04 06:58:35;;;;;;;;;;;6.00;99.90;;;;;;5084993;28;20036;-66
2023/01/04 07:01:01;;;;;;;;;;;6.00;99.90;;;;;;5081292;28;20010;-66
2023/01/04 07:03:26;;;;;;;;;;;6.00;99.90;;;;;;5081082;27;20389;-67
2023/01/04 07:05:52;;;;;;;;;;;6.00;99.90;;;;;;5084926;27;20357;-70
2023/01/04 07:08:18;;;;;;;;;;;6.10;99.90;;;;;;5084608;27;19919;-69
2023/01/04 07:10:43;;;;;;;;;;;6.10;99.90;;;;;;5082483;27;20002;-68
2023/01/04 07:13:09;;;;;;;;;;;6.10;99.90;;;;;;5088271;27;20378;-80
2023/01/04 07:15:34;;;;;;;;;;;6.20;99.90;;;;;;5083463;27;19916;-66
2023/01/04 07:18:00;;;;;;;;;;;6.10;99.90;;;;;;5081299;28;19961;-69
2023/01/04 07:20:25;;;;;;;;;;;6.10;99.90;;;;;;5080792;28;19923;-69
2023/01/04 07:22:51;;;;;;;;;;;6.10;99.90;;;;;;5078314;27;19916;-70
2023/01/04 07:25:16;;;;;;;;;;;6.00;99.90;;;;;;5083849;28;19969;-68
2023/01/04 07:27:42;;;;;;;;;;;6.00;99.90;;;;;;5083676;28;19920;-66
2023/01/04 07:30:07;;;;;;;;;;;5.90;99.90;;;;;;5080415;28;19916;-66
2023/01/04 07:32:33;;;;;;;;;;;5.80;99.90;;;;;;5082062;27;19916;-67
2023/01/04 07:34:58;;;;;;;;;;;5.80;99.90;;;;;;5082441;28;20424;-67
2023/01/04 07:37:24;;;;;;;;;;;5.80;99.90;;;;;;5088253;28;19916;-67
2023/01/04 07:39:49;;;;;;;;;;;5.80;99.90;;;;;;5083413;27;20011;-71
2023/01/04 07:42:15;;;;;;;;;;;5.80;99.90;;;;;;5089388;27;20388;-72
2023/01/04 07:44:40;;;;;;;;;;;5.80;99.90;;;;;;5082562;27;19920;-67
2023/01/04 07:47:05;;;;;;;;;;;5.70;99.90;;;;;;5082806;28;19916;-66
2023/01/04 07:49:31;;;;;;;;;;;5.70;99.90;;;;;;5080700;28;20285;-69
2023/01/04 07:51:56;;;;;;;;;;;5.70;99.90;;;;;;5077757;28;20669;-71
2023/01/04 07:54:25;;;;;;;;;;;5.60;99.90;;;;;;5079624;28;19926;-69
2023/01/04 07:56:51;;;;;;;;;;;5.60;99.90;;;;;;5079743;28;19917;-67
2023/01/04 07:59:17;;;;;;;;;;;5.70;99.90;;;;;;5085196;28;19915;-68
2023/01/04 08:01:43;;;;;;;;;;;5.70;99.90;;;;;;5097431;28;19936;-66
2023/01/04 08:04:09;;;;;;;;;;;5.70;99.90;;;;;;5097431;28;19919;-67
2023/01/04 08:06:35;;;;;;;;;;;5.70;99.90;;;;;;5095121;28;19992;-68
2023/01/04 08:09:01;;;;;;;;;;;5.70;99.90;;;;;;5096838;28;20010;-69
2023/01/04 08:11:26;;;;;;;;;;;5.70;99.90;;;;;;5084163;28;20243;-68
2023/01/04 08:13:52;;;;;;;;;;;5.70;99.90;;;;;;5086837;28;20443;-67
2023/01/04 08:16:19;;;;;;;;;;;5.70;99.90;;;;;;5084571;28;20023;-66
2023/01/04 08:18:45;;;;;;;;;;;5.70;99.90;;;;;;5087165;28;19958;-68
2023/01/04 08:21:10;;;;;;;;;;;5.70;99.90;;;;;;5086900;28;19963;-68
2023/01/04 08:23:36;;;;;;;;;;;5.70;99.90;;;;;;5082507;28;20020;-66
2023/01/04 08:26:05;;;;;;;;;;;5.70;99.90;;;;;;5087342;28;19958;-66
2023/01/04 08:28:31;;;;;;;;;;;5.80;99.90;;;;;;5084971;28;19966;-66
2023/01/04 08:30:56;;;;;;;;;;;5.80;99.90;;;;;;5087580;28;19951;-65
2023/01/04 08:33:22;;;;;;;;;;;5.80;99.90;;;;;;5094574;28;19957;-78
2023/01/04 08:35:47;;;;;;;;;;;5.80;99.90;;;;;;5096837;28;19912;-74
2023/01/04 08:38:13;;;;;;;;;;;5.80;99.90;;;;;;5096267;28;19966;-67
2023/01/04 08:40:38;;;;;;;;;;;5.80;99.90;;;;;;5094754;28;20360;-66
2023/01/04 08:43:04;;;;;;;;;;;5.90;99.90;;;;;;5087088;27;19916;-67
2023/01/04 08:45:29;;;;;;;;;;;5.90;99.90;;;;;;5086259;28;19915;-68
2023/01/04 08:47:55;;;;;;;;;;;5.90;99.90;;;;;;5080629;28;20421;-67
2023/01/04 08:50:20;;;;;;;;;;;5.90;99.90;;;;;;5086938;28;19941;-67
2023/01/04 08:52:46;;;;;;;;;;;5.90;99.90;;;;;;5086575;28;20457;-68
2023/01/04 08:55:11;;;;;;;;;;;6.00;99.90;;;;;;5084363;28;19963;-70
2023/01/04 08:57:37;;;;;;;;;;;6.00;99.90;;;;;;5086602;28;19968;-69
2023/01/04 09:00:03;;;;;;;;;;;6.00;99.90;;;;;;5094048;28;20381;-70
2023/01/04 09:02:28;;;;;;;;;;;6.00;99.90;;;;;;5096020;28;19912;-71
2023/01/04 09:04:58;;;;;;;;;;;6.00;99.90;;;;;;5096332;28;19924;-70
2023/01/04 09:07:24;;;;;;;;;;;6.10;99.90;;;;;;5094559;28;19985;-69
2023/01/04 09:09:50;;;;;;;;;;;6.10;99.90;;;;;;5096222;28;19916;-68
2023/01/04 09:12:15;;;;;;;;;;;6.10;99.90;;;;;;5096058;28;19915;-67
2023/01/04 09:14:41;;;;;;;;;;;6.10;99.90;;;;;;5096164;28;19916;-69
2023/01/04 09:17:06;;;;;;;;;;;6.10;99.90;;;;;;5095150;28;19916;-69
2023/01/04 09:19:32;;;;;;;;;;;6.20;99.90;;;;;;5094249;28;20562;-68
2023/01/04 09:21:57;;;;;;;;;;;6.20;99.90;;;;;;5095306;28;19923;-66
2023/01/04 09:24:23;;;;;;;;;;;6.20;99.90;;;;;;5095681;28;20374;-68
2023/01/04 09:26:48;;;;;;;;;;;6.20;99.90;;;;;;5095821;28;19919;-69
2023/01/04 09:29:14;;;;;;;;;;;6.20;99.90;;;;;;5095388;28;19923;-70
2023/01/04 09:31:39;;;;;;;;;;;6.30;99.90;;;;;;5095535;28;19923;-69
2023/01/04 09:34:05;;;;;;;;;;;6.30;99.90;;;;;;5093274;28;19915;-69
2023/01/04 09:36:31;;;;;;;;;;;6.30;99.90;;;;;;5095923;28;20194;-68
2023/01/04 09:38:56;;;;;;;;;;;6.30;99.90;;;;;;5095548;28;19934;-68
2023/01/04 09:41:26;;;;;;;;;;;6.30;99.90;;;;;;5094011;28;19924;-68
2023/01/04 09:43:53;;;;;;;;;;;6.30;99.90;;;;;;5095565;28;19920;-68
2023/01/04 09:46:18;;;;;;;;;;;6.30;99.90;;;;;;5094030;27;19916;-68
2023/01/04 09:48:46;;;;;;;;;;;6.40;99.90;;;;;;5089383;28;19916;-67
2023/01/04 09:51:14;;;;;;;;;;;6.40;99.90;;;;;;5089223;28;20207;-69
2023/01/04 09:53:43;;;;;;;;;;;6.40;99.90;;;;;;5089310;28;19916;-71
2023/01/04 09:56:12;;;;;;;;;;;6.40;99.90;;;;;;5087654;28;20352;-71
2023/01/04 09:58:39;;;;;;;;;;;6.40;99.90;;;;;;5089913;27;19919;-69
2023/01/04 10:01:15;;;;;;;;;;;6.40;99.90;;;;;;5089859;27;19920;-70
2023/01/04 10:03:46;;;;;;;;;;;6.40;99.90;;;;;;5087262;27;19919;-69
2023/01/04 10:06:12;;;;;;;;;;;6.40;99.90;;;;;;5090653;27;20461;-70
2023/01/04 10:08:39;;;;;;;;;;;6.50;99.90;;;;;;5092560;28;20030;-71
2023/01/04 10:11:17;;;;;;;;;;;6.50;99.90;;;;;;5092078;28;20397;-71
2023/01/04 10:13:43;;;;;;;;;;;6.50;99.90;;;;;;5095675;27;20334;-71
2023/01/04 10:16:24;;;;;;;;;;;6.40;99.90;;;;;;5099246;27;20118;-69
2023/01/04 10:18:53;;;;;;;;;;;6.50;99.90;;;;;;5098438;28;20648;-68
2023/01/04 10:21:27;;;;;;;;;;;6.50;99.90;;;;;;5099129;27;20364;-69
2023/01/04 10:23:58;;;;;;;;;;;6.50;99.90;;;;;;5098010;28;19920;-69
2023/01/04 10:26:28;;;;;;;;;;;6.50;99.90;;;;;;5097662;28;19916;-69
2023/01/04 10:29:02;;;;;;;;;;;6.50;99.90;;;;;;5099353;28;19960;-69
2023/01/04 10:31:30;;;;;;;;;;;6.60;99.90;;;;;;5087760;28;19998;-70
2023/01/04 10:33:55;;;;;;;;;;;6.60;99.90;;;;;;5087738;28;20391;-70
2023/01/04 10:36:23;;;;;;;;;;;6.50;99.90;;;;;;5094546;27;19915;-71
2023/01/04 10:38:59;;;;;;;;;;;6.60;99.90;;;;;;5099469;28;20001;-70
2023/01/04 10:41:26;;;;;;;;;;;6.60;99.90;;;;;;5098648;28;19959;-68
2023/01/04 10:44:00;;;;;;;;;;;6.60;99.90;;;;;;5092823;28;19920;-70
2023/01/04 10:46:31;;;;;;;;;;;6.60;99.90;;;;;;5088089;28;19916;-69
2023/01/04 10:49:09;;;;;;;;;;;6.60;99.90;;;;;;5088638;27;19919;-69
2023/01/04 10:51:49;;;;;;;;;;;6.60;99.90;;;;;;5088737;27;19916;-68
2023/01/04 10:54:24;;;;;;;;;;;6.60;99.90;;;;;;5089876;27;20053;-68
2023/01/04 10:56:59;;;;;;;;;;;6.70;99.90;;;;;;5096296;28;19947;-69
2023/01/04 10:59:41;;;;;;;;;;;6.60;99.90;;;;;;5089600;27;19916;-68
2023/01/04 11:02:25;;;;;;;;;;;6.70;99.90;;;;;;5095509;27;20351;-70
2023/01/04 11:05:06;;;;;;;;;;;6.70;99.90;;;;;;5098833;27;20010;-69
2023/01/04 11:07:32;;;;;;;;;;;6.70;99.90;;;;;;5091580;28;19916;-68
2023/01/04 11:10:05;;;;;;;;;;;6.70;99.90;;;;;;5087554;27;19923;-70
2023/01/04 11:12:30;;;;;;;;;;;6.70;99.90;;;;;;5087511;28;20003;-70
2023/01/04 11:14:56;;;;;;;;;;;6.80;99.90;;;;;;5089433;28;20658;-70
2023/01/04 11:17:22;;;;;;;;;;;6.80;99.90;;;;;;5083525;27;19916;-71
2023/01/04 11:19:48;;;;;;;;;;;6.80;99.90;;;;;;5088538;28;20023;-71
2023/01/04 11:22:17;;;;;;;;;;;6.80;99.90;;;;;;5087988;28;20038;-74
2023/01/04 11:24:44;;;;;;;;;;;6.80;99.90;;;;;;5087975;27;20313;-72
2023/01/04 11:27:12;;;;;;;;;;;6.80;99.90;;;;;;5086627;28;20219;-69
2023/01/04 11:29:51;;;;;;;;;;;6.90;99.90;;;;;;5088358;28;19951;-69
2023/01/04 11:32:20;;;;;;;;;;;6.90;99.90;;;;;;5087834;28;20277;-71
2023/01/04 11:34:50;;;;;;;;;;;6.90;99.90;;;;;;5096294;28;20003;-71
2023/01/04 11:37:32;;;;;;;;;;;7.00;99.90;;;;;;5092619;28;19919;-71
2023/01/04 11:40:15;;;;;;;;;;;7.00;99.90;;;;;;5096491;28;20002;-70
2023/01/04 11:42:41;;;;;;;;;;;7.00;99.90;;;;;;5097255;27;19985;-70
2023/01/04 11:45:15;;;;;;;;;;;7.10;99.90;;;;;;5095473;28;19947;-70
2023/01/04 11:47:48;;;;;;;;;;;7.10;99.90;;;;;;5097837;28;20314;-70
2023/01/04 11:50:32;;;;;;;;;;;7.10;99.90;;;;;;5097868;28;20010;-69
2023/01/04 11:52:57;;;;;;;;;;;7.10;99.90;;;;;;5091156;27;19998;-71
2023/01/04 11:55:22;;;;;;;;;;;7.20;99.90;;;;;;5081944;27;20022;-73
2023/01/04 11:58:04;;;;;;;;;;;7.20;99.90;;;;;;5079403;28;19946;-71
2023/01/04 12:00:29;;;;;;;;;;;7.20;99.90;;;;;;5079223;28;20627;-68
2023/01/04 12:03:08;;;;;;;;;;;7.20;99.90;;;;;;5079128;27;20416;-68
2023/01/04 12:05:34;;;;;;;;;;;7.30;99.90;;;;;;5084255;28;20191;-67
2023/01/04 12:07:59;;;;;;;;;;;7.20;99.90;;;;;;5082308;28;19920;-67
2023/01/04 12:10:26;;;;;;;;;;;7.30;99.90;;;;;;5082013;28;19919;-68
2023/01/04 12:12:55;;;;;;;;;;;7.30;99.90;;;;;;5082651;27;19926;-69
2023/01/04 12:15:28;;;;;;;;;;;7.30;99.90;;;;;;5080915;27;19916;-71
2023/01/04 12:17:56;;;;;;;;;;;7.30;99.90;;;;;;5082052;28;19912;-69
2023/01/04 12:20:25;;;;;;;;;;;7.30;99.90;;;;;;5082227;28;19923;-70
2023/01/04 12:22:50;;;;;;;;;;;7.30;99.90;;;;;;5078333;27;20021;-69
2023/01/04 12:25:24;;;;;;;;;;;7.40;99.90;;;;;;5079881;27;19920;-70
2023/01/04 12:27:50;;;;;;;;;;;7.40;99.90;;;;;;5083001;28;20408;-71
2023/01/04 12:30:36;;;;;;;;;;;7.40;99.90;;;;;;5083034;28;20323;-67
2023/01/04 12:33:20;;;;;;;;;;;7.40;99.90;;;;;;5083916;28;19922;-69
2023/01/04 12:36:00;;;;;;;;;;;7.40;99.90;;;;;;5080349;27;19919;-70
2023/01/04 12:38:45;;;;;;;;;;;7.50;99.90;;;;;;5079999;28;19912;-69
2023/01/04 12:41:10;;;;;;;;;;;7.50;99.90;;;;;;5078245;28;20827;-70
2023/01/04 12:43:36;;;;;;;;;;;7.50;99.90;;;;;;5081933;28;19916;-70
2023/01/04 12:49:23;;;;;;;;;;;7.50;99.90;;;;;;5081638;28;19942;-67
2023/01/04 12:51:49;;;;;;;;;;;7.50;99.90;;;;;;5082540;28;20452;-69
2023/01/04 12:54:22;;;;;;;;;;;7.50;99.90;;;;;;5082270;27;19916;-62
2023/01/04 12:57:06;;;;;;;;;;;7.70;99.90;;;;;;5085001;28;20191;-58
2023/01/04 12:59:36;;;;;;;;;;;7.70;99.90;;;;;;5080001;28;19943;-59
2023/01/04 13:02:14;;;;;;;;;;;7.80;99.90;;;;;;5087464;27;19916;-59
2023/01/04 13:04:40;;;;;;;;;;;7.80;99.90;;;;;;5080260;28;19955;-59
2023/01/04 13:07:24;;;;;;;;;;;7.80;99.90;;;;;;5083071;28;19961;-60
2023/01/04 13:09:51;;;;;;;;;;;7.80;99.90;;;;;;5086145;28;19916;-61
2023/01/04 13:12:23;;;;;;;;;;;7.90;99.90;;;;;;5079489;28;19912;-61
2023/01/04 13:14:51;;;;;;;;;;;7.90;99.90;;;;;;5083689;28;19922;-60
2023/01/04 13:17:20;;;;;;;;;;;7.90;99.90;;;;;;5084852;28;19919;-59
2023/01/04 13:19:46;;;;;;;;;;;7.80;99.90;;;;;;5084687;28;19956;-60
2023/01/04 13:22:31;;;;;;;;;;;7.80;99.90;;;;;;5079527;28;19951;-61
2023/01/04 13:24:57;;;;;;;;;;;7.90;99.90;;;;;;5086474;28;19927;-60
2023/01/04 13:27:23;;;;;;;;;;;7.90;99.90;;;;;;5088968;27;20377;-60
2023/01/04 13:29:49;;;;;;;;;;;8.00;99.90;;;;;;5085339;27;19942;-61
2023/01/04 13:32:25;;;;;;;;;;;8.00;99.90;;;;;;5085632;28;20283;-60
2023/01/04 13:34:51;;;;;;;;;;;7.90;99.90;;;;;;5090179;28;19915;-61
2023/01/04 13:37:34;;;;;;;;;;;7.90;99.90;;;;;;5090585;28;20439;-59
2023/01/04 13:40:05;;;;;;;;;;;7.90;99.90;;;;;;5100448;27;19916;-59
2023/01/04 13:42:34;;;;;;;;;;;7.90;99.90;;;;;;5092584;28;19923;-60
2023/01/04 13:45:08;;;;;;;;;;;8.00;99.90;;;;;;5085410;27;19931;-58
2023/01/04 13:47:35;;;;;;;;;;;9.50;99.90;;;;;;5090478;27;19916;-65
2023/01/04 13:50:00;;;;;;;;;;;10.60;99.90;;;;;;5089940;27;19946;-56
2023/01/04 13:52:27;;;;;;;;;;;11.50;99.90;;;;;;5089523;28;19955;-58
2023/01/04 13:55:10;;;;;;;;;;;12.20;99.90;;;;;;5089749;27;20453;-58
2023/01/04 13:57:36;;;;;;;;;;;12.90;99.90;;;;;;5086800;27;19919;-58
2023/01/04 14:00:05;;;;;;;;;;;13.60;99.90;;;;;;5090963;27;19916;-57
2023/01/04 14:02:33;;;;;;;;;;;14.20;99.90;;;;;;5090873;27;19923;-58
2023/01/04 14:04:59;;;;;;;;;;;14.80;99.90;;;;;;5089186;27;19965;-58
2023/01/04 14:07:24;;;;;;;;;;;15.20;99.90;;;;;;5089826;27;19919;-57
2023/01/04 14:09:52;;;;;;;;;;;15.70;99.90;;;;;;5089550;27;19922;-58
2023/01/04 14:12:26;;;;;;;;;;;16.00;99.90;;;;;;5098160;27;19916;-56
2023/01/04 14:15:18;;;;;;;;;;;16.40;99.90;;;;;;5099859;27;19915;-56
2023/01/04 14:17:50;;;;;;;;;;;16.70;99.90;;;;;;5079384;27;19955;-56
2023/01/04 14:20:19;;;;;;;;;;;17.00;99.90;;;;;;5084456;27;19915;-57
2023/01/04 14:22:44;;;;;;;;;;;17.30;99.90;;;;;;5099990;27;19911;-56
2023/01/04 14:25:34;;;;;;;;;;;17.60;99.90;;;;;;5099402;28;19935;-58
2023/01/04 14:28:18;;;;;;;;;;;17.80;99.90;;;;;;5099529;28;19916;-57
2023/01/04 14:30:44;;;;;;;;;;;18.00;99.90;;;;;;5098510;28;19923;-58
2023/01/04 14:33:14;;;;;;;;;;;18.20;99.90;;;;;;5085130;28;19950;-58
2023/01/04 14:35:39;;;;;;;;;;;18.40;99.90;;;;;;5084503;27;19926;-59
2023/01/04 14:38:10;;;;;;;;;;;18.50;99.90;;;;;;5084115;28;19915;-56
2023/01/04 14:40:36;;;;;;;;;;;18.70;99.90;;;;;;5084979;28;19924;-57
2023/01/04 14:43:02;;;;;;;;;;;18.80;99.90;;;;;;5085106;27;19969;-61
2023/01/04 14:45:27;;;;;;;;;;;18.90;99.90;;;;;;5084357;28;19923;-57
2023/01/04 14:47:52;;;;;;;;;;;18.90;99.90;;;;;;5089027;27;19915;-57
2023/01/04 14:50:18;;;;;;;;;;;19.00;99.90;;;;;;5087311;27;19981;-59
2023/01/04 14:52:50;;;;;;;;;;;19.00;99.90;;;;;;5093335;28;20434;-59
2023/01/04 14:55:16;;;;;;;;;;;19.10;99.90;;;;;;5099654;27;20025;-58
2023/01/04 14:57:43;;;;;;;;;;;19.20;99.90;;;;;;5097754;27;20309;-64
2023/01/04 15:00:13;;;;;;;;;;;19.30;99.90;;;;;;5087572;27;19977;-57
2023/01/04 15:02:38;;;;;;;;;;;19.40;99.90;;;;;;5093613;27;19989;-57
2023/01/04 15:05:04;;;;;;;;;;;19.40;99.90;;;;;;5084195;27;20159;-57
2023/01/04 15:07:38;;;;;;;;;;;19.50;99.90;;;;;;5096906;27;20370;-57
2023/01/04 15:10:05;;;;;;;;;;;19.60;99.90;;;;;;5095319;27;19912;-57
2023/01/04 15:12:30;;;;;;;;;;;19.70;99.90;;;;;;5096286;27;20148;-58
2023/01/04 15:14:56;;;;;;;;;;;19.80;99.90;;;;;;5098008;27;19915;-58
2023/01/04 15:17:21;;;;;;;;;;;19.90;99.90;;;;;;5098409;27;19994;-58
2023/01/04 15:19:46;;;;;;;;;;;20.00;99.90;;;;;;5096062;27;19922;-58
2023/01/04 15:22:12;;;;;;;;;;;20.10;99.90;;;;;;5097624;27;20006;-61
2023/01/04 15:24:38;;;;;;;;;;;20.20;99.90;;;;;;5097958;28;19976;-59
2023/01/04 15:27:03;;;;;;;;;;;20.20;99.90;;;;;;5097856;27;19923;-59
2023/01/04 15:29:29;;;;;;;;;;;20.30;99.90;;;;;;5096191;27;19911;-60